Latest Coastal Weather Observations for Cape Grim

IDT60701

Issued at 12:02 am EDT Sunday 17 December 2017 (issued every 10 minutes, with the page automatically refreshed every 10 minutes)

About coastal observations | Map of coastal stations | Coastal observations for TAS | Marine services | Other Formats
Station Details ID: 091331 Name: CAPE GRIM Lat: -40.68 Lon: 144.69 Height: 86.0 m
Data from the previous 72 hours. | See also: Recent months at Cape Grim
Date/Time
EDT
Temp
°C
Wind Pressure Rain since
9am
mm
Weather Cloud Vis
km
Sea
Height
m
Swell
Dir  Spd
kts
Gust
kts
hPa Trend Height
m
Period
s
Dir
17/12:00am 14.0 SW 15 19 1018.7 - 0.0 - Clear - - - - -
 
Date/Time
EDT
Temp
°C
Wind Pressure Rain since
9am
mm
Weather Cloud Vis
km
Sea
Height
m
Swell
Dir  Spd
kts
Gust
kts
hPa Trend Height
m
Period
s
Dir
16/11:30pm 14.0 SSW 13 19 1018.3 - 0.0 - - - - - - -
16/11:00pm 14.1 SSW 11 16 1018.0 - 0.0 - - - - - - -
16/10:30pm 14.0 SSW 12 17 1017.8 - 0.0 - - - - - - -
16/10:00pm 14.4 SW 12 17 1017.7 - 0.0 - Partly cloudy - - - - -
16/09:30pm 14.7 SW 15 19 1017.2 - 0.0 - Partly cloudy - - - - -
16/09:00pm 14.9 SW 14 19 1016.9 - 0.0 - Mostly clear - - - - -
16/08:30pm 15.2 SW 13 16 1016.7 - 0.0 - - - - - - -
16/08:00pm 15.8 SW 13 18 1016.4 - 0.0 - - - - - - -
16/07:30pm 16.4 SW 13 16 1016.0 - 0.0 - Partly cloudy - - - - -
16/07:00pm 16.1 SW 12 14 1015.6 - 0.0 - Partly cloudy - - - - -
16/06:30pm 17.5 SW 13 15 1015.3 - 0.0 - Cloudy - - - - -
16/06:00pm 16.9 SW 13 17 1015.0 - 0.0 - Partly cloudy - - - - -
16/05:30pm 17.6 SW 15 18 1014.9 - 0.0 - - - - - - -
16/05:00pm 18.3 SW 13 18 1014.9 - 0.0 - Partly cloudy - - - - -
16/04:30pm 17.1 SW 12 15 1015.0 - 0.0 - Partly cloudy - - - - -
16/04:00pm 16.7 SW 11 17 1015.0 - 0.0 - Partly cloudy - - - - -
16/03:30pm 16.8 WSW 10 17 1015.0 - 0.0 - Partly cloudy - - - - -
16/03:00pm 16.5 W 11 15 1015.0 - 0.0 - Cloudy - - - - -
16/02:30pm 16.5 W 12 19 1014.8 - 0.0 - Partly cloudy - - - - -
16/02:00pm 18.8 W 13 17 1014.7 - 0.0 - Partly cloudy - - - - -
16/01:30pm 18.9 W 15 21 1014.5 - 0.0 - Cloudy - - - - -
16/01:05pm 18.6 W 14 19 1014.3 - 0.0 - Partly cloudy - - - - -
16/01:00pm 18.0 W 14 18 1014.4 - 0.0 - Partly cloudy - - - - -
16/12:50pm 18.3 W 14 20 1014.3 - 0.0 - Partly cloudy - - - - -
16/12:30pm 18.4 W 14 21 1014.2 - 0.0 - Partly cloudy - - - - -
16/12:00pm 18.6 W 14 20 1013.9 - 0.0 - Cloudy - - - - -
16/11:30am 18.4 W 13 20 1013.7 - 0.0 - Partly cloudy - - - - -
16/11:00am 18.8 W 12 16 1013.7 - 0.0 - Partly cloudy - - - - -
16/10:30am 19.2 WNW 12 15 1013.5 - 0.0 - Partly cloudy - - - - -
16/10:00am 17.6 W 12 16 1013.2 - 0.0 - Partly cloudy - - - - -
16/09:30am 17.2 W 12 16 1013.0 - 0.0 - Cloudy - - - - -
16/09:00am 16.1 WNW 17 24 1012.9 - 0.0 - Cloudy - - - - -
16/08:30am 16.6 WNW 16 21 1012.4 - 0.0 - Partly cloudy - - - - -
16/08:00am 16.7 WNW 15 19 1012.2 - 0.0 - Cloudy - - - - -
16/07:30am 16.3 WNW 16 19 1012.1 - 0.0 - Cloudy - - - - -
16/07:00am 16.0 WNW 15 20 1011.7 - 0.0 - Partly cloudy - - - - -
16/06:30am 15.7 WNW 15 21 1011.4 - 0.0 - Partly cloudy - - - - -
16/06:00am 15.4 NW 15 22 1011.2 - 0.0 - Cloudy - - - - -
16/05:30am 15.3 NW 13 18 1011.0 - 0.0 - Partly cloudy - - - - -
16/05:00am 15.3 NW 15 19 1010.6 - 0.0 - Partly cloudy - - - - -
16/04:30am 15.1 NW 15 18 1010.6 - 0.0 - Partly cloudy - - - - -
16/04:00am 15.1 NW 13 18 1010.4 - 0.0 - Partly cloudy - - - - -
16/03:30am 14.9 NW 14 18 1010.4 - 0.0 - Partly cloudy - - - - -
16/03:00am 15.0 NW 14 18 1010.6 - 0.0 - Cloudy - - - - -
16/02:30am 14.7 NW 13 18 1010.8 - 0.0 - - - - - - -
16/02:00am 14.8 WNW 12 17 1010.9 - 0.0 - - - - - - -
16/01:30am 14.9 WNW 13 18 1011.0 - 0.0 - Partly cloudy - - - - -
16/01:00am 15.0 WNW 13 17 1011.1 - 0.0 - Partly cloudy - - - - -
16/12:30am 15.1 WNW 14 18 1011.1 - 0.0 - Partly cloudy - - - - -
16/12:00am 14.8 WNW 13 16 1011.3 - 0.0 - - - - - - -
 
Date/Time
EDT
Temp
°C
Wind Pressure Rain since
9am
mm
Weather Cloud Vis
km
Sea
Height
m
Swell
Dir  Spd
kts
Gust
kts
hPa Trend Height
m
Period
s
Dir
15/11:30pm 14.9 WNW 13 17 1011.1 - 0.0 - - - - - - -
15/11:00pm 15.1 WNW 15 19 1011.1 - 0.0 - Partly cloudy - - - - -
15/10:30pm 14.9 WNW 11 15 1011.1 - 0.0 - - - - - - -
15/10:00pm 15.1 WNW 12 15 1011.0 - 0.0 - - - - - - -
15/09:30pm 15.0 WNW 12 15 1011.0 - 0.0 - - - - - - -
15/09:00pm 15.1 WNW 11 13 1010.8 - 0.0 - - - - - - -
15/08:30pm 15.5 WNW 11 14 1010.7 - 0.0 - - - - - - -
15/08:00pm 16.1 WNW 12 16 1010.5 - 0.0 - Partly cloudy - - - - -
15/07:30pm 16.7 WNW 14 19 1010.4 - 0.0 - - - - - - -
15/07:00pm 17.2 WNW 13 16 1010.2 - 0.0 - - - - - - -
15/06:30pm 17.7 WNW 14 18 1010.1 - 0.0 - - - - - - -
15/06:00pm 18.3 WNW 14 16 1010.1 - 0.0 - - - - - - -
15/05:30pm 18.5 WNW 11 14 1010.3 - 0.0 - - - - - - -
15/05:00pm 19.2 WNW 12 14 1010.5 - 0.0 - - - - - - -
15/04:30pm 19.0 NW 11 13 1010.7 - 0.0 - - - - - - -
15/04:00pm 18.7 NW 11 13 1010.9 - 0.0 - - - - - - -
15/03:30pm 19.4 NW 11 14 1011.0 - 0.0 - - - - - - -
15/03:00pm 18.7 NW 10 15 1011.1 - 0.0 - - - - - - -
15/02:30pm 19.1 NW 11 14 1011.4 - 0.0 - - - - - - -
15/02:00pm 19.3 NW 11 14 1011.4 - 0.0 - - - - - - -
15/01:30pm 19.1 NNW 10 15 1011.4 - 0.0 - - - - - - -
15/01:00pm 18.4 NNW 12 14 1011.7 - 0.0 - Partly cloudy - - - - -
15/12:30pm 18.6 NNW 11 14 1011.7 - 0.0 - Partly cloudy - - - - -
15/12:00pm 18.5 NNW 12 14 1011.7 - 0.0 - Partly cloudy - - - - -
15/11:30am 18.5 NNW 11 13 1012.1 - 0.0 - Partly cloudy - - - - -
15/11:00am 17.4 NNW 10 13 1012.2 - 0.0 - Partly cloudy - - - - -
15/10:30am 18.0 NNW 9 13 1012.3 - 0.0 - Partly cloudy - - - - -
15/10:00am 16.9 NNW 8 12 1012.5 - 0.0 - Partly cloudy - - - - -
15/09:30am 16.2 NNW 7 11 1012.5 - 0.0 - Partly cloudy - - - - -
15/09:00am 16.2 NNW 6 9 1012.4 - 0.0 - Mostly clear - - - - -
15/08:30am 16.3 NW 7 9 1012.3 - 0.0 - Partly cloudy - - - - -
15/08:00am 15.6 WNW 5 7 1012.2 - 0.0 - - - - - - -
15/07:30am 14.5 W 5 8 1012.1 - 0.0 - Partly cloudy - - - - -
15/07:00am 14.1 W 5 8 1011.7 - 0.0 - Partly cloudy - - - - -
15/06:30am 13.0 WNW 5 7 1011.5 - 0.0 - - - - - - -
15/06:00am 13.1 W 5 7 1011.4 - 0.0 - - - - - - -
15/05:30am 13.3 WSW 5 9 1011.1 - 0.0 - - - - - - -
15/05:00am 13.2 SW 7 11 1010.9 - 0.0 - - - - - - -
15/04:30am 13.4 WSW 7 9 1010.9 - 0.0 - Partly cloudy - - - - -
15/04:00am 13.7 WSW 7 10 1010.9 - 0.0 - Partly cloudy - - - - -
15/03:30am 13.6 SW 7 11 1010.8 - 0.0 - Partly cloudy - - - - -
15/03:00am 13.7 SW 8 13 1011.0 - 0.0 - Mostly cloudy - - - - -
15/02:30am 13.9 WSW 8 14 1011.1 - 0.0 - - - - - - -
15/02:00am 14.0 SW 9 15 1011.2 - 0.0 - - - - - - -
15/01:30am 14.1 SW 11 17 1011.3 - 0.0 - Partly cloudy - - - - -
15/01:00am 14.2 WSW 9 15 1011.2 - 0.0 - Partly cloudy - - - - -
15/12:30am 14.3 WSW 12 19 1011.2 - 0.0 - Partly cloudy - - - - -
15/12:00am 14.0 WSW 10 18 1011.1 - 0.0 - Partly cloudy - - - - -
 
Date/Time
EDT
Temp
°C
Wind Pressure Rain since
9am
mm
Weather Cloud Vis
km
Sea
Height
m
Swell
Dir  Spd
kts
Gust
kts
hPa Trend Height
m
Period
s
Dir
14/11:30pm 13.9 SW 13 19 1011.0 - 0.0 - Partly cloudy - - - - -
14/11:00pm 13.9 SW 11 17 1011.0 - 0.0 - Partly cloudy - - - - -
14/10:30pm 13.7 SW 11 16 1011.0 - 0.0 - Partly cloudy - - - - -
14/10:14pm 13.6 SW 15 20 1010.9 - 0.0 - Partly cloudy - - - - -
14/10:00pm 13.5 SW 17 21 1010.8 - 0.0 - Partly cloudy - - - - -
14/09:30pm 14.0 WSW 13 21 1010.2 - 0.0 - Partly cloudy - - - - -
14/09:14pm 14.0 W 15 23 1010.0 - 0.0 - Partly cloudy - - - - -
14/09:00pm 14.1 W 19 29 1009.7 - 0.0 - Mostly cloudy - - - - -
14/08:30pm 14.4 WSW 15 29 1009.4 - 0.0 - Partly cloudy - - - - -
14/08:17pm 14.9 W 17 27 1009.2 - 0.0 - Partly cloudy - - - - -
14/08:00pm 15.7 W 17 26 1009.0 - 0.0 - Partly cloudy - - - - -
14/07:30pm 15.8 W 18 26 1008.7 - 0.0 - Cloudy - - - - -
14/07:00pm 15.8 W 18 26 1008.2 - 0.0 - Partly cloudy - - - - -
14/06:38pm 15.9 W 18 28 1007.8 - 0.0 - Partly cloudy - - - - -
14/06:30pm 16.0 W 18 25 1007.8 - 0.0 - - - - - - -
14/06:00pm 16.7 W 18 25 1007.4 - 0.0 - Mostly cloudy - - - - -
14/05:30pm 16.3 W 18 28 1007.4 - 0.0 - Partly cloudy - - - - -
14/05:00pm 16.3 W 18 28 1007.4 - 0.0 - Partly cloudy - - - - -
14/04:56pm 16.2 W 18 28 1007.3 - 0.0 - Partly cloudy - - - - -
14/04:30pm 16.3 W 17 25 1007.1 - 0.0 - Partly cloudy - - - - -
14/04:00pm 16.6 W 17 25 1006.9 - 0.0 - - - - - - -
14/03:34pm 16.6 W 17 27 1006.7 - 0.0 - - - - - - -
14/03:30pm 16.9 W 18 26 1006.6 - 0.0 - - - - - - -
14/03:00pm 17.0 W 17 30 1006.4 - 0.0 - - - - - - -
14/02:30pm 16.6 W 16 27 1006.2 - 0.0 - - - - - - -
14/02:20pm 16.7 WSW 15 25 1006.2 - 0.0 - - - - - - -
14/02:00pm 16.6 WSW 14 25 1006.1 - 0.0 - Partly cloudy - - - - -
14/01:30pm 16.4 WSW 15 27 1005.9 - 0.0 - - - - - - -
14/01:00pm 16.5 WSW 15 27 1005.7 - 0.0 - Partly cloudy - - - - -
14/12:34pm 16.1 WSW 15 29 1005.6 - 0.0 - Partly cloudy - - - - -
14/12:30pm 16.2 WSW 14 29 1005.7 - 0.0 - Partly cloudy - - - - -
14/12:01pm 16.6 WSW 16 26 1005.3 - 0.0 - Partly cloudy - - - - -
14/12:00pm 16.4 WSW 15 24 1005.3 - 0.0 - Partly cloudy - - - - -
14/11:44am 16.6 WSW 15 26 1005.3 - 0.0 - Partly cloudy - - - - -
14/11:30am 16.5 WSW 14 23 1005.2 - 0.0 - Partly cloudy - - - - -
14/11:00am 16.5 SW 15 24 1005.0 - 0.0 - Partly cloudy - - - - -
14/10:30am 16.3 SW 17 27 1004.7 - 0.0 - Partly cloudy - - - - -
14/10:16am 16.1 SW 16 26 1004.5 - 0.0 - Partly cloudy - - - - -
14/10:00am 15.9 SW 19 24 1004.5 - 0.0 - Partly cloudy - - - - -
14/09:46am 15.5 SW 19 24 1004.4 - 0.0 - Partly cloudy - - - - -
14/09:30am 15.3 SW 18 25 1004.1 - 0.0 - Partly cloudy - - - - -
14/09:00am 14.8 SW 18 24 1004.0 - 0.0 - Cloudy - - - - -
14/08:30am 15.2 SW 19 30 1003.3 - 0.0 - Partly cloudy - - - - -
14/08:22am 15.6 SW 15 28 1003.2 - 0.0 - Cloudy - - - - -
14/08:00am 15.6 SW 17 23 1002.9 - 0.0 - Cloudy - - - - -
14/07:30am 15.6 WSW 14 24 1002.4 - 0.0 - Cloudy - - - - -
14/07:00am 15.4 WSW 13 21 1002.1 - 0.0 - Cloudy - - - - -
14/06:30am 15.8 SW 15 20 1001.6 - 0.0 - Cloudy - - - - -
14/06:00am 15.8 SW 16 20 1001.1 - 0.0 - Partly cloudy - - - - -
14/05:45am 15.8 SW 15 19 1000.9 - 0.0 - Partly cloudy - - - - -
14/05:30am 16.0 SW 17 21 1000.9 - 0.0 - Partly cloudy - - - - -
14/05:00am 16.4 WSW 11 17 1000.7 - 0.0 - - - - - - -
14/04:30am 16.5 W 14 18 1000.4 - 0.0 - - - - - - -
14/04:00am 17.6 W 13 17 1000.2 - 0.0 - - - - - - -
14/03:30am 19.7 NNW 9 12 999.7 - 0.0 - Partly cloudy - - - - -
14/03:00am 18.2 NE 9 11 999.8 - 0.0 - Mostly cloudy - - - - -
14/02:30am 18.0 ENE 13 15 999.5 - 0.0 - - - - - - -
14/02:00am 18.0 E 16 19 999.1 - 0.0 - - - - - - -
14/01:30am 17.9 E 15 17 1000.3 - 0.0 - Cloudy - - - - -
14/01:00am 17.8 E 14 18 1001.1 - 0.0 - Partly cloudy - - - - -
14/12:30am 18.0 E 10 13 1002.7 - 0.0 - Partly cloudy - - - - -

Other Formats:

Comma delimited format used in spreadsheet applications
http://www.bom.gov.au/fwo/IDT60701/IDT60701.95954.axf

JavaScript Object Notation format (JSON) in row-major order
http://www.bom.gov.au/fwo/IDT60701/IDT60701.95954.json